createdAt,value
2022-12-23T00:03:58.838Z,102355.56
2022-12-23T00:09:01.563Z,102373.50
2022-12-23T00:14:22.644Z,102381.19
2022-12-23T00:19:25.343Z,102372.41
2022-12-23T00:24:27.926Z,102389.34
2022-12-23T00:29:30.601Z,102396.44
2022-12-23T00:34:33.258Z,102392.84
2022-12-23T00:39:55.224Z,102410.44
2022-12-23T00:45:16.062Z,102425.56
2022-12-23T00:50:19.065Z,102449.19
2022-12-23T00:55:22.121Z,102447.16
2022-12-23T01:00:44.946Z,102442.91
2022-12-23T01:05:47.694Z,102444.31
2022-12-23T01:10:50.338Z,102470.50
2022-12-23T01:15:53.023Z,102474.22
2022-12-23T01:20:55.814Z,102482.34
2022-12-23T01:26:00.009Z,102486.69
2022-12-23T01:31:04.279Z,102500.25
2022-12-23T01:36:09.574Z,102470.94
2022-12-23T01:41:40.298Z,102463.97
2022-12-23T01:46:43.320Z,102498.97
2022-12-23T01:51:46.008Z,102507.38
2022-12-23T01:56:49.048Z,102499.09
2022-12-23T02:02:10.384Z,102475.19
2022-12-23T02:07:32.564Z,102523.38
2022-12-23T02:12:44.343Z,102529.59
2022-12-23T02:17:52.782Z,102536.94
2022-12-23T02:23:14.120Z,102539.34
2022-12-23T02:28:41.266Z,102549.00
2022-12-23T02:34:14.387Z,102553.38
2022-12-23T02:39:40.930Z,102549.56
2022-12-23T02:45:11.194Z,102568.19
2022-12-23T02:50:19.487Z,102554.25
2022-12-23T02:55:29.733Z,102557.97
2022-12-23T03:00:33.102Z,102562.69
2022-12-23T03:05:47.418Z,102574.50
2022-12-23T03:10:55.983Z,102577.69
2022-12-23T03:16:24.781Z,102575.66
2022-12-23T03:21:53.567Z,102583.44
2022-12-23T03:27:23.022Z,102540.09
2022-12-23T03:32:26.822Z,102592.25
2022-12-23T03:37:32.148Z,102595.06
2022-12-23T03:42:40.348Z,102607.75
2022-12-23T03:47:52.859Z,102587.25
2022-12-23T03:53:09.251Z,102605.81
2022-12-23T03:58:22.667Z,102623.75
2022-12-23T04:03:46.697Z,102620.66
2022-12-23T04:08:50.046Z,102622.66
2022-12-23T04:13:53.806Z,102634.38
2022-12-23T04:18:56.535Z,102629.13
2022-12-23T04:23:59.261Z,102631.94
2022-12-23T04:29:02.034Z,102639.59
2022-12-23T04:34:04.708Z,102641.94
2022-12-23T04:39:07.414Z,102647.63
2022-12-23T04:44:10.122Z,102647.53
2022-12-23T04:49:12.860Z,102649.69
2022-12-23T04:54:15.626Z,102624.19
2022-12-23T04:59:18.269Z,102651.88
2022-12-23T05:04:21.325Z,102664.50
2022-12-23T05:09:24.208Z,102673.66
2022-12-23T05:14:27.027Z,102674.22
2022-12-23T05:19:29.644Z,102670.53
2022-12-23T05:24:32.334Z,102669.81
2022-12-23T05:29:35.142Z,102677.75
2022-12-23T05:34:37.979Z,102679.47
2022-12-23T05:39:40.656Z,102685.69
2022-12-23T05:44:43.383Z,102626.03
2022-12-23T05:49:46.025Z,102698.00
2022-12-23T05:54:48.781Z,102699.47
2022-12-23T05:59:51.782Z,102699.81
2022-12-23T06:04:54.435Z,102668.59
2022-12-23T06:09:57.238Z,102701.38
2022-12-23T06:14:59.967Z,102692.75
2022-12-23T06:20:02.725Z,102718.72
2022-12-23T06:25:06.423Z,102719.28
2022-12-23T06:30:10.013Z,102711.25
2022-12-23T06:35:12.735Z,102724.84
2022-12-23T06:40:15.503Z,102715.31
2022-12-23T06:45:18.371Z,102721.25
2022-12-23T06:50:21.048Z,102711.19
2022-12-23T06:55:23.851Z,102713.69
2022-12-23T07:00:26.559Z,102722.34
2022-12-23T07:05:36.520Z,102681.38
2022-12-23T07:10:39.966Z,102730.13
2022-12-23T07:15:42.554Z,102694.91
2022-12-23T07:20:45.371Z,102734.34
2022-12-23T07:25:48.081Z,102721.75
2022-12-23T07:30:51.141Z,102717.78
2022-12-23T07:35:59.124Z,102736.28
2022-12-23T07:41:01.846Z,102713.53
2022-12-23T07:46:09.341Z,102718.06
2022-12-23T07:51:12.038Z,102704.00
2022-12-23T07:56:14.690Z,102714.75
2022-12-23T08:01:17.997Z,102711.75
2022-12-23T08:06:20.736Z,102704.22
2022-12-23T08:11:23.402Z,102695.81
2022-12-23T08:16:26.234Z,102715.53
2022-12-23T08:21:28.889Z,102716.16
2022-12-23T08:26:33.109Z,102718.22
2022-12-23T08:31:35.820Z,102726.91
2022-12-23T08:36:40.436Z,102731.41
2022-12-23T08:41:46.547Z,102745.84
2022-12-23T08:46:49.372Z,102748.75
2022-12-23T08:51:52.917Z,102752.97
2022-12-23T08:56:55.658Z,102753.72
2022-12-23T09:02:00.060Z,102756.34
2022-12-23T09:07:03.046Z,102754.34
2022-12-23T09:12:05.869Z,102738.88
2022-12-23T09:17:08.613Z,102756.03
2022-12-23T09:22:11.285Z,102755.91
2022-12-23T09:27:13.936Z,102681.34
2022-12-23T09:32:16.720Z,102759.50
2022-12-23T09:37:19.684Z,102750.94
2022-12-23T09:42:42.797Z,102763.09
2022-12-23T09:47:45.713Z,102749.56
2022-12-23T09:53:07.883Z,102763.53
2022-12-23T09:58:35.585Z,102780.38
2022-12-23T10:04:04.357Z,102758.75
2022-12-23T10:09:10.532Z,102754.25
2022-12-23T10:14:20.733Z,102762.34
2022-12-23T10:19:42.257Z,102770.63
2022-12-23T10:24:46.824Z,102760.06
2022-12-23T10:29:49.512Z,102756.81
2022-12-23T10:34:52.136Z,102759.84
2022-12-23T10:40:26.017Z,102759.31
2022-12-23T10:45:39.902Z,102765.38
2022-12-23T10:50:48.767Z,102769.50
2022-12-23T10:55:51.546Z,102781.16
2022-12-23T11:01:09.956Z,102774.88
2022-12-23T11:06:16.822Z,102784.91
2022-12-23T11:11:19.538Z,102779.59
2022-12-23T11:16:25.516Z,102775.72
2022-12-23T11:21:29.747Z,102765.44
2022-12-23T11:26:32.437Z,102728.28
2022-12-23T11:31:36.741Z,102723.03
2022-12-23T11:36:39.645Z,102753.13
2022-12-23T11:41:50.536Z,102741.03
2022-12-23T11:46:53.579Z,102744.72
2022-12-23T11:52:10.781Z,102749.94
2022-12-23T11:57:18.964Z,102743.19
2022-12-23T12:02:39.553Z,102732.94
2022-12-23T12:07:45.656Z,102722.28
2022-12-23T12:12:55.051Z,102739.13
2022-12-23T12:17:58.561Z,102737.88
2022-12-23T12:23:05.650Z,102721.72
2022-12-23T12:28:14.486Z,102731.91
2022-12-23T12:33:24.657Z,102725.78
2022-12-23T12:38:36.950Z,102716.00
2022-12-23T12:43:46.042Z,102713.31
2022-12-23T12:49:09.881Z,102715.84
2022-12-23T12:54:18.544Z,102704.31
2022-12-23T12:59:26.279Z,102710.59
2022-12-23T13:04:50.157Z,102709.88
2022-12-23T13:10:17.313Z,102698.34
2022-12-23T13:15:39.470Z,102701.13
2022-12-23T13:20:56.618Z,102697.16
2022-12-23T13:26:08.622Z,102698.06
2022-12-23T13:31:16.448Z,102700.66
2022-12-23T13:36:34.483Z,102703.38
2022-12-23T13:41:49.850Z,102701.28
2022-12-23T13:47:07.807Z,102702.47
2022-12-23T13:52:31.226Z,102699.47
2022-12-23T13:57:55.635Z,102703.38
2022-12-23T14:02:58.523Z,102702.56
2022-12-23T14:08:19.452Z,102688.03
2022-12-23T14:13:24.905Z,102680.28
2022-12-23T14:19:05.964Z,102674.16
2022-12-23T14:24:35.317Z,102670.94
2022-12-23T14:29:51.129Z,102677.72
2022-12-23T14:35:06.434Z,102662.31
2022-12-23T14:40:39.833Z,102663.03
2022-12-23T14:45:43.689Z,102628.03
2022-12-23T14:50:57.947Z,102639.75
2022-12-23T14:56:17.121Z,102630.00
2022-12-23T15:01:34.256Z,102630.00
2022-12-23T15:06:39.606Z,102628.91
2022-12-23T15:11:42.891Z,102614.97
2022-12-23T15:16:46.814Z,102612.91
2022-12-23T15:21:56.704Z,102604.91
2022-12-23T15:32:30.043Z,102607.47
2022-12-23T15:37:33.619Z,102606.78
2022-12-23T15:43:13.740Z,102591.19
2022-12-23T15:49:31.108Z,102592.50
2022-12-23T15:55:12.608Z,102580.25
2022-12-23T16:00:52.800Z,102576.84
2022-12-23T16:05:56.212Z,102555.50
2022-12-23T16:11:17.020Z,102561.53
2022-12-23T16:16:29.406Z,102550.75
2022-12-23T16:21:35.499Z,102560.84
2022-12-23T16:26:43.032Z,102546.16
2022-12-23T16:31:52.183Z,102547.31
2022-12-23T16:37:00.207Z,102551.63
2022-12-23T16:42:02.836Z,102552.28
2022-12-23T16:47:07.922Z,102542.44
2022-12-23T16:52:14.500Z,102534.53
2022-12-23T16:57:17.307Z,102520.00
2022-12-23T17:02:24.527Z,102503.16
2022-12-23T17:07:27.676Z,102509.63
2022-12-23T17:12:30.387Z,102500.97
2022-12-23T17:17:33.386Z,102486.19
2022-12-23T17:22:36.751Z,102497.66
2022-12-23T17:27:40.360Z,102493.13
2022-12-23T17:32:43.125Z,102498.66
2022-12-23T17:37:45.787Z,102489.25
2022-12-23T17:42:48.584Z,102491.97
2022-12-23T17:47:51.621Z,102494.13
2022-12-23T17:52:54.463Z,102485.94
2022-12-23T17:57:57.179Z,102477.00
2022-12-23T18:02:59.979Z,102466.38
2022-12-23T18:08:03.888Z,102460.41
2022-12-23T18:13:08.403Z,102434.41
2022-12-23T18:18:17.910Z,102463.56
2022-12-23T18:23:30.045Z,102459.72
2022-12-23T18:28:32.822Z,102456.56
2022-12-23T18:33:35.592Z,102468.41
2022-12-23T18:38:38.223Z,102458.47
2022-12-23T18:43:41.046Z,102454.53
2022-12-23T18:48:43.990Z,102448.28
2022-12-23T18:53:47.947Z,102440.88
2022-12-23T18:58:50.628Z,102414.91
2022-12-23T19:03:53.340Z,102428.41
2022-12-23T19:08:55.982Z,102406.72
2022-12-23T19:13:58.941Z,102403.78
2022-12-23T19:19:01.651Z,102381.34
2022-12-23T19:24:05.061Z,102378.16
2022-12-23T19:29:07.778Z,102359.84
2022-12-23T19:34:15.124Z,102374.78
2022-12-23T19:39:22.141Z,102359.13
2022-12-23T19:44:24.837Z,102361.75
2022-12-23T19:49:27.680Z,102354.44
2022-12-23T19:54:30.343Z,102348.03
2022-12-23T19:59:32.980Z,102340.41
2022-12-23T20:04:35.467Z,102338.97
2022-12-23T20:09:38.296Z,102322.78
2022-12-23T20:14:41.071Z,102309.66
2022-12-23T20:19:46.179Z,102304.25
2022-12-23T20:24:50.147Z,102274.19
2022-12-23T20:29:53.262Z,102281.50
2022-12-23T20:34:55.931Z,102273.38
2022-12-23T20:39:58.553Z,102266.41
2022-12-23T20:45:01.254Z,102268.28
2022-12-23T20:50:04.467Z,102257.63
2022-12-23T20:55:07.656Z,102246.97
2022-12-23T21:00:10.901Z,102219.84
2022-12-23T21:05:13.536Z,102226.59
2022-12-23T21:10:16.295Z,102218.69
2022-12-23T21:15:19.102Z,102174.63
2022-12-23T21:20:21.730Z,102184.56
2022-12-23T21:25:24.378Z,102187.00
2022-12-23T21:30:27.252Z,102191.84
2022-12-23T21:35:29.940Z,102187.09
2022-12-23T21:40:32.616Z,102175.13
2022-12-23T21:45:35.804Z,102164.59
2022-12-23T21:50:38.512Z,102140.34
2022-12-23T21:55:41.184Z,102124.78
2022-12-23T22:00:45.639Z,102123.56
2022-12-23T22:05:48.470Z,102129.34
2022-12-23T22:10:51.135Z,102119.56
2022-12-23T22:15:53.968Z,102098.13
2022-12-23T22:20:56.667Z,102089.16
2022-12-23T22:25:59.362Z,102091.09
2022-12-23T22:31:11.880Z,102082.44
2022-12-23T22:36:15.935Z,102079.66
2022-12-23T22:41:19.361Z,102051.75
2022-12-23T22:46:21.867Z,102047.38
2022-12-23T22:51:27.236Z,102040.66
2022-12-23T22:56:30.000Z,102026.78
2022-12-23T23:01:35.886Z,102027.97
2022-12-23T23:06:39.049Z,102007.53
2022-12-23T23:11:41.547Z,102007.44
2022-12-23T23:16:44.229Z,101980.31
2022-12-23T23:21:49.136Z,101975.00
2022-12-23T23:26:51.808Z,101978.59
2022-12-23T23:31:54.907Z,101990.25
2022-12-23T23:36:57.873Z,101980.97
2022-12-23T23:42:00.540Z,101985.25
2022-12-23T23:47:03.242Z,101972.59
2022-12-23T23:52:05.898Z,101973.53
2022-12-23T23:57:08.764Z,101947.03
